createdAt,value
2022-08-16T00:00:20.156Z,95470.25
2022-08-16T00:02:51.788Z,95470.03
2022-08-16T00:05:20.703Z,95446.38
2022-08-16T00:07:49.942Z,95455.03
2022-08-16T00:10:25.475Z,95481.53
2022-08-16T00:12:55.419Z,95479.94
2022-08-16T00:15:51.499Z,95480.94
2022-08-16T00:18:17.324Z,95482.94
2022-08-16T00:20:47.893Z,95485.53
2022-08-16T00:23:19.084Z,95480.94
2022-08-16T00:26:35.768Z,95481.97
2022-08-16T00:28:54.931Z,95472.94
2022-08-16T00:31:24.178Z,95462.91
2022-08-16T00:33:52.835Z,95475.53
2022-08-16T00:36:21.102Z,95482.13
2022-08-16T00:38:49.285Z,95477.31
2022-08-16T00:41:17.705Z,95484.53
2022-08-16T00:43:47.377Z,95496.97
2022-08-16T00:46:33.654Z,95486.31
2022-08-16T00:49:05.075Z,95503.78
2022-08-16T00:51:33.909Z,95511.41
2022-08-16T00:54:02.247Z,95473.25
2022-08-16T00:56:57.553Z,95512.75
2022-08-16T00:59:24.257Z,95522.56
2022-08-16T01:01:53.943Z,95518.78
2022-08-16T01:04:29.195Z,95486.63
2022-08-16T01:07:02.413Z,95520.16
2022-08-16T01:09:33.679Z,95520.16
2022-08-16T01:12:04.276Z,95542.19
2022-08-16T01:14:39.356Z,95545.41
2022-08-16T01:17:13.365Z,95549.00
2022-08-16T01:19:45.812Z,95560.19
2022-08-16T01:22:57.621Z,95560.19
2022-08-16T01:25:12.312Z,95567.78
2022-08-16T01:27:44.029Z,95562.72
2022-08-16T01:30:20.447Z,95561.88
2022-08-16T01:33:01.343Z,95570.44
2022-08-16T01:35:44.597Z,95576.56
2022-08-16T01:38:19.930Z,95582.16
2022-08-16T01:40:52.263Z,95587.16
2022-08-16T01:43:21.538Z,95577.13
2022-08-16T01:45:57.796Z,95577.84
2022-08-16T01:48:31.371Z,95581.44
2022-08-16T01:51:09.657Z,95595.66
2022-08-16T01:53:45.341Z,95596.63
2022-08-16T01:56:25.890Z,95590.25
2022-08-16T01:58:57.090Z,95594.19
2022-08-16T02:01:26.239Z,95598.81
2022-08-16T02:03:58.467Z,95581.78
2022-08-16T02:06:45.884Z,95575.13
2022-08-16T02:09:14.877Z,95606.47
2022-08-16T02:11:53.361Z,95599.44
2022-08-16T02:14:26.663Z,95595.66
2022-08-16T02:16:56.519Z,95602.66
2022-08-16T02:19:58.790Z,95590.25
2022-08-16T02:22:33.874Z,95599.03
2022-08-16T02:25:09.860Z,95590.31
2022-08-16T02:27:40.887Z,95589.94
2022-08-16T02:30:36.074Z,95586.34
2022-08-16T02:33:04.026Z,95578.72
2022-08-16T02:35:33.325Z,95577.97
2022-08-16T02:38:08.347Z,95567.34
2022-08-16T02:40:37.451Z,95530.97
2022-08-16T02:43:07.610Z,95561.16
2022-08-16T02:45:36.758Z,95549.34
2022-08-16T02:48:30.635Z,95555.91
2022-08-16T02:51:06.133Z,95551.31
2022-08-16T02:53:43.253Z,95543.28
2022-08-16T02:56:15.069Z,95536.84
2022-08-16T02:58:45.605Z,95522.06
2022-08-16T03:01:25.430Z,95502.72
2022-08-16T03:04:39.998Z,95541.59
2022-08-16T03:06:56.802Z,95524.19
2022-08-16T03:09:28.678Z,95529.41
2022-08-16T03:11:58.273Z,95529.81
2022-08-16T03:14:30.565Z,95538.41
2022-08-16T03:17:00.714Z,95535.41
2022-08-16T03:19:47.654Z,95531.00
2022-08-16T03:22:28.796Z,95532.00
2022-08-16T03:25:02.040Z,95525.22
2022-08-16T03:27:32.415Z,95522.53
2022-08-16T03:30:16.432Z,95523.72
2022-08-16T03:32:47.431Z,95492.63
2022-08-16T03:35:17.647Z,95519.72
2022-08-16T03:38:01.484Z,95524.75
2022-08-16T03:40:31.728Z,95519.56
2022-08-16T03:43:20.599Z,95521.75
2022-08-16T03:45:52.712Z,95520.75
2022-08-16T03:48:36.896Z,95531.34
2022-08-16T03:51:12.063Z,95517.94
2022-08-16T03:53:41.671Z,95517.94
2022-08-16T03:56:19.578Z,95506.06
2022-08-16T03:58:50.851Z,95515.09
2022-08-16T04:01:23.328Z,95522.16
2022-08-16T04:03:52.921Z,95481.19
2022-08-16T04:06:23.429Z,95511.91
2022-08-16T04:08:51.989Z,95503.94
2022-08-16T04:11:23.639Z,95518.94
2022-08-16T04:14:00.120Z,95528.09
2022-08-16T04:16:38.790Z,95526.13
2022-08-16T04:19:07.051Z,95500.03
2022-08-16T04:21:47.244Z,95526.97
2022-08-16T04:24:15.954Z,95495.19
2022-08-16T04:26:46.510Z,95534.81
2022-08-16T04:29:23.904Z,95535.41
2022-08-16T04:31:57.939Z,95546.47
2022-08-16T04:34:31.243Z,95542.63
2022-08-16T04:37:01.448Z,95559.50
2022-08-16T04:39:46.242Z,95561.09
2022-08-16T04:42:16.391Z,95567.09
2022-08-16T04:44:53.673Z,95539.50
2022-08-16T04:47:32.967Z,95573.72
2022-08-16T04:50:03.916Z,95581.91
2022-08-16T04:52:35.823Z,95578.84
2022-08-16T04:55:09.789Z,95565.41
2022-08-16T04:57:41.287Z,95541.09
2022-08-16T05:00:32.446Z,95567.53
2022-08-16T05:03:07.618Z,95564.34
2022-08-16T05:05:44.728Z,95569.94
2022-08-16T05:08:29.700Z,95567.16
2022-08-16T05:11:01.268Z,95558.78
2022-08-16T05:13:40.753Z,95566.22
2022-08-16T05:16:19.845Z,95557.81
2022-08-16T05:18:51.208Z,95562.03
2022-08-16T05:21:21.674Z,95547.59
2022-08-16T05:23:55.427Z,95556.00
2022-08-16T05:26:27.763Z,95554.59
2022-08-16T05:28:57.050Z,95557.44
2022-08-16T05:31:29.948Z,95536.88
2022-08-16T05:34:03.020Z,95584.91
2022-08-16T05:36:34.412Z,95574.47
2022-08-16T05:39:06.654Z,95585.13
2022-08-16T05:41:45.603Z,95591.78
2022-08-16T05:44:23.902Z,95585.78
2022-08-16T05:46:55.784Z,95605.44
2022-08-16T05:49:38.318Z,95607.28
2022-08-16T05:52:10.573Z,95599.91
2022-08-16T05:54:46.009Z,95607.13
2022-08-16T05:57:16.735Z,95613.25
2022-08-16T05:59:47.468Z,95603.56
2022-08-16T06:02:28.913Z,95583.88
2022-08-16T06:05:02.307Z,95601.91
2022-08-16T06:07:32.859Z,95594.50
2022-08-16T06:10:01.549Z,95603.19
2022-08-16T06:12:31.048Z,95611.06
2022-08-16T06:15:01.855Z,95602.66
2022-08-16T06:17:42.833Z,95595.66
2022-08-16T06:20:18.567Z,95566.63
2022-08-16T06:22:58.781Z,95594.16
2022-08-16T06:25:36.643Z,95608.41
2022-08-16T06:28:10.074Z,95612.81
2022-08-16T06:30:43.954Z,95603.97
2022-08-16T06:33:22.111Z,95610.19
2022-08-16T06:35:54.972Z,95608.16
2022-08-16T06:38:32.728Z,95623.63
2022-08-16T06:41:04.956Z,95620.59
2022-08-16T06:43:34.585Z,95620.44
2022-08-16T06:46:10.751Z,95617.41
2022-08-16T06:48:43.171Z,95622.81
2022-08-16T06:51:14.862Z,95621.41
2022-08-16T06:53:43.286Z,95602.38
2022-08-16T06:56:14.648Z,95536.91
2022-08-16T06:58:52.651Z,95623.59
2022-08-16T07:01:43.367Z,95618.78
2022-08-16T07:04:12.073Z,95612.13
2022-08-16T07:06:43.597Z,95611.31
2022-08-16T07:09:15.883Z,95613.09
2022-08-16T07:11:47.970Z,95618.97
2022-08-16T07:14:24.198Z,95620.34
2022-08-16T07:16:54.024Z,95586.63
2022-08-16T07:19:23.125Z,95613.28
2022-08-16T07:22:38.385Z,95620.16
2022-08-16T07:25:01.253Z,95625.34
2022-08-16T07:27:32.142Z,95644.47
2022-08-16T07:30:02.393Z,95640.09
2022-08-16T07:32:32.893Z,95644.50
2022-08-16T07:35:03.265Z,95634.03
2022-08-16T07:37:32.871Z,95644.81
2022-08-16T07:40:01.299Z,95605.31
2022-08-16T07:42:39.503Z,95630.34
2022-08-16T07:45:10.144Z,95619.50
2022-08-16T07:47:38.783Z,95629.00
2022-08-16T07:50:56.830Z,95639.41
2022-08-16T07:53:01.932Z,95644.22
2022-08-16T07:55:45.517Z,95641.34
2022-08-16T07:58:18.390Z,95635.88
2022-08-16T08:01:10.166Z,95645.16
2022-08-16T08:03:47.621Z,95638.75
2022-08-16T08:06:18.272Z,95643.75
2022-08-16T08:08:52.748Z,95641.03
2022-08-16T08:11:28.779Z,95618.66
2022-08-16T08:14:03.609Z,95649.19
2022-08-16T08:16:32.832Z,95649.66
2022-08-16T08:19:02.582Z,95650.09
2022-08-16T08:21:58.461Z,95646.56
2022-08-16T08:24:31.839Z,95642.69
2022-08-16T08:27:02.176Z,95635.03
2022-08-16T08:29:37.696Z,95644.56
2022-08-16T08:32:58.178Z,95635.81
2022-08-16T08:35:00.368Z,95645.81
2022-08-16T08:37:55.039Z,95635.00
2022-08-16T08:40:24.733Z,95631.38
2022-08-16T08:43:00.457Z,95637.69
2022-08-16T08:45:48.574Z,95622.66
2022-08-16T08:48:32.944Z,95619.94
2022-08-16T08:51:08.720Z,95645.47
2022-08-16T08:53:37.888Z,95648.66
2022-08-16T08:56:22.984Z,95647.13
2022-08-16T08:58:53.679Z,95650.22
2022-08-16T09:01:31.708Z,95647.06
2022-08-16T09:04:06.114Z,95651.25
2022-08-16T09:06:35.045Z,95655.66
2022-08-16T09:09:04.357Z,95649.03
2022-08-16T09:11:41.122Z,95651.09
2022-08-16T09:14:24.717Z,95656.56
2022-08-16T09:17:01.646Z,95626.78
2022-08-16T09:19:33.910Z,95639.22
2022-08-16T09:22:02.457Z,95649.00
2022-08-16T09:24:48.813Z,95624.34
2022-08-16T09:27:20.472Z,95650.16
2022-08-16T09:29:49.209Z,95619.84
2022-08-16T09:32:30.898Z,95574.69
2022-08-16T09:34:59.661Z,95632.44
2022-08-16T09:37:29.824Z,95637.44
2022-08-16T09:39:59.460Z,95634.59
2022-08-16T09:42:30.374Z,95649.13
2022-08-16T09:45:18.796Z,95651.41
2022-08-16T09:47:56.093Z,95621.22
2022-08-16T09:50:37.003Z,95635.47
2022-08-16T09:53:16.793Z,95638.81
2022-08-16T09:55:49.422Z,95637.44
2022-08-16T09:58:40.832Z,95640.00
2022-08-16T10:01:11.165Z,95628.97
2022-08-16T10:04:02.482Z,95615.88
2022-08-16T10:06:33.474Z,95636.69
2022-08-16T10:09:05.551Z,95624.81
2022-08-16T10:11:52.551Z,95634.78
2022-08-16T10:14:24.962Z,95630.94
2022-08-16T10:17:03.491Z,95634.78
2022-08-16T10:19:32.566Z,95634.25
2022-08-16T10:22:04.977Z,95631.97
2022-08-16T10:24:36.323Z,95629.31
2022-08-16T10:27:26.544Z,95622.59
2022-08-16T10:30:00.129Z,95617.41
2022-08-16T10:32:31.991Z,95599.91
2022-08-16T10:35:02.129Z,95628.28
2022-08-16T10:37:35.818Z,95635.19
2022-08-16T10:40:06.569Z,95620.78
2022-08-16T10:42:54.658Z,95625.13
2022-08-16T10:45:25.471Z,95621.00
2022-08-16T10:48:03.421Z,95588.00
2022-08-16T10:50:33.748Z,95631.06
2022-08-16T10:53:07.508Z,95623.53
2022-08-16T10:55:41.000Z,95619.22
2022-08-16T10:58:17.401Z,95622.63
2022-08-16T11:00:54.237Z,95614.41
2022-08-16T11:03:44.562Z,95624.97
2022-08-16T11:06:14.499Z,95624.34
2022-08-16T11:08:45.769Z,95620.22
2022-08-16T11:11:19.683Z,95618.31
2022-08-16T11:14:11.026Z,95632.34
2022-08-16T11:19:30.262Z,95619.28
2022-08-16T11:22:38.658Z,95593.38
2022-08-16T11:25:11.460Z,95614.88
2022-08-16T11:27:47.190Z,95620.69
2022-08-16T11:30:19.859Z,95623.88
2022-08-16T11:32:50.023Z,95615.09
2022-08-16T11:35:43.412Z,95608.66
2022-08-16T11:38:47.424Z,95623.50
2022-08-16T11:41:03.462Z,95613.94
2022-08-16T11:43:34.143Z,95614.41
2022-08-16T11:46:34.228Z,95617.91
2022-08-16T11:48:54.911Z,95605.84
2022-08-16T11:51:24.293Z,95608.91
2022-08-16T11:53:53.142Z,95605.22
2022-08-16T11:56:39.596Z,95611.47
2022-08-16T11:59:10.443Z,95607.44
2022-08-16T12:01:44.565Z,95610.94
2022-08-16T12:04:25.796Z,95613.28
2022-08-16T12:06:54.760Z,95607.16
2022-08-16T12:09:24.859Z,95610.22
2022-08-16T12:11:58.370Z,95582.94
2022-08-16T12:14:35.338Z,95608.88
2022-08-16T12:17:06.162Z,95626.13
2022-08-16T12:19:38.298Z,95608.94
2022-08-16T12:22:19.075Z,95607.63
2022-08-16T12:24:52.250Z,95579.84
2022-08-16T12:27:24.342Z,95607.31
2022-08-16T12:29:52.919Z,95613.72
2022-08-16T12:32:35.891Z,95600.03
2022-08-16T12:35:10.646Z,95613.69
2022-08-16T12:37:38.995Z,95608.84
2022-08-16T12:40:24.724Z,95611.31
2022-08-16T12:42:58.464Z,95615.50
2022-08-16T12:45:29.005Z,95614.75
2022-08-16T12:48:33.728Z,95610.59
2022-08-16T12:51:10.891Z,95606.47
2022-08-16T12:53:47.777Z,95609.72
2022-08-16T12:56:19.419Z,95604.75
2022-08-16T12:58:51.973Z,95602.88
2022-08-16T13:01:22.697Z,95614.91
2022-08-16T13:04:08.195Z,95595.66
2022-08-16T13:06:42.236Z,95605.50
2022-08-16T13:09:23.407Z,95596.88
2022-08-16T13:12:00.415Z,95598.94
2022-08-16T13:14:32.892Z,95604.94
2022-08-16T13:17:02.996Z,95595.78
2022-08-16T13:19:56.291Z,95594.91
2022-08-16T13:22:24.294Z,95593.41
2022-08-16T13:24:53.337Z,95590.66
2022-08-16T13:27:59.378Z,95587.72
2022-08-16T13:30:11.500Z,95594.75
2022-08-16T13:32:59.793Z,95589.50
2022-08-16T13:35:34.373Z,95594.06
2022-08-16T13:38:04.173Z,95589.53
2022-08-16T13:40:34.502Z,95595.94
2022-08-16T13:43:03.192Z,95561.84
2022-08-16T13:45:36.305Z,95563.59
2022-08-16T13:48:06.596Z,95585.44
2022-08-16T13:50:49.248Z,95589.16
2022-08-16T13:53:24.362Z,95586.84
2022-08-16T13:55:57.815Z,95581.19
2022-08-16T13:58:36.450Z,95576.91
2022-08-16T14:01:09.666Z,95581.06
2022-08-16T14:03:39.847Z,95583.56
2022-08-16T14:06:10.601Z,95551.72
2022-08-16T14:08:41.974Z,95579.41
2022-08-16T14:11:12.183Z,95574.94
2022-08-16T14:13:40.781Z,95583.41
2022-08-16T14:16:23.456Z,95565.00
2022-08-16T14:18:53.054Z,95549.75
2022-08-16T14:21:22.051Z,95576.59
2022-08-16T14:23:53.551Z,95569.25
2022-08-16T14:26:21.753Z,95568.09
2022-08-16T14:28:53.282Z,95564.66
2022-08-16T14:31:23.619Z,95570.41
2022-08-16T14:33:51.861Z,95565.44
2022-08-16T14:36:29.419Z,95562.47
2022-08-16T14:38:59.906Z,95558.44
2022-08-16T14:41:28.436Z,95554.13
2022-08-16T14:43:56.805Z,95547.31
2022-08-16T14:46:25.092Z,95545.66
2022-08-16T14:48:54.086Z,95545.66
2022-08-16T14:51:23.257Z,95548.50
2022-08-16T14:53:56.882Z,95541.13
2022-08-16T14:56:43.085Z,95547.03
2022-08-16T14:59:14.953Z,95520.41
2022-08-16T15:01:58.920Z,95543.53
2022-08-16T15:04:40.518Z,95544.56
2022-08-16T15:07:17.806Z,95545.41
2022-08-16T15:10:00.525Z,95541.69
2022-08-16T15:12:33.521Z,95544.56
2022-08-16T15:15:04.621Z,95543.78
2022-08-16T15:17:41.240Z,95538.50
2022-08-16T15:20:11.324Z,95541.06
2022-08-16T15:22:41.601Z,95532.38
2022-08-16T15:25:13.353Z,95547.19
2022-08-16T15:27:54.860Z,95521.47
2022-08-16T15:30:58.411Z,95537.66
2022-08-16T15:33:16.939Z,95526.09
2022-08-16T15:35:46.320Z,95545.84
2022-08-16T15:38:54.906Z,95532.34
2022-08-16T15:41:03.809Z,95550.88
2022-08-16T15:43:38.872Z,95539.78
2022-08-16T15:46:55.868Z,95516.19
2022-08-16T15:49:15.532Z,95533.16
2022-08-16T15:51:46.120Z,95545.22
2022-08-16T15:54:20.913Z,95537.16
2022-08-16T15:57:09.633Z,95538.75
2022-08-16T15:59:49.207Z,95541.47
2022-08-16T16:02:29.683Z,95540.44
2022-08-16T16:05:01.716Z,95545.75
2022-08-16T16:07:33.223Z,95542.13
2022-08-16T16:10:02.792Z,95537.34
2022-08-16T16:12:51.126Z,95527.06
2022-08-16T16:15:22.876Z,95534.16
2022-08-16T16:17:53.136Z,95524.56
2022-08-16T16:20:24.338Z,95513.94
2022-08-16T16:22:53.553Z,95534.69
2022-08-16T16:25:21.742Z,95527.31
2022-08-16T16:27:55.923Z,95527.31
2022-08-16T16:30:37.274Z,95527.03
2022-08-16T16:33:15.639Z,95528.88
2022-08-16T16:35:55.663Z,95501.50
2022-08-16T16:38:30.775Z,95519.22
2022-08-16T16:41:04.798Z,95518.41
2022-08-16T16:43:40.500Z,95526.81
2022-08-16T16:46:43.039Z,95527.59
2022-08-16T16:49:03.017Z,95533.38
2022-08-16T16:51:32.461Z,95528.59
2022-08-16T16:54:12.824Z,95527.22
2022-08-16T16:56:46.111Z,95524.56
2022-08-16T16:59:19.959Z,95532.88
2022-08-16T17:01:57.813Z,95541.19
2022-08-16T17:04:39.143Z,95502.63
2022-08-16T17:07:11.134Z,95527.69
2022-08-16T17:09:41.029Z,95539.34
2022-08-16T17:12:10.256Z,95544.38
2022-08-16T17:14:48.351Z,95539.03
2022-08-16T17:17:17.956Z,95541.31
2022-08-16T17:19:46.122Z,95541.72
2022-08-16T17:22:19.892Z,95554.00
2022-08-16T17:24:50.776Z,95545.09
2022-08-16T17:27:33.141Z,95557.91
2022-08-16T17:30:15.903Z,95558.31
2022-08-16T17:32:50.649Z,95556.09
2022-08-16T17:35:33.768Z,95537.41
2022-08-16T17:38:07.247Z,95561.25
2022-08-16T17:40:47.450Z,95564.53
2022-08-16T17:43:27.999Z,95540.22
2022-08-16T17:45:57.772Z,95572.78
2022-08-16T17:48:27.623Z,95574.81
2022-08-16T17:50:55.879Z,95573.66
2022-08-16T17:53:24.401Z,95583.34
2022-08-16T17:55:54.649Z,95579.69
2022-08-16T17:58:24.371Z,95585.16
2022-08-16T18:00:54.797Z,95589.59
2022-08-16T18:03:40.812Z,95596.94
2022-08-16T18:06:18.556Z,95605.75
2022-08-16T18:08:52.178Z,95605.66
2022-08-16T18:11:26.480Z,95601.78
2022-08-16T18:13:55.560Z,95601.25
2022-08-16T18:16:24.269Z,95607.44
2022-08-16T18:18:52.539Z,95578.94
2022-08-16T18:21:39.963Z,95605.56
2022-08-16T18:24:08.870Z,95604.22
2022-08-16T18:26:37.419Z,95608.09
2022-08-16T18:29:06.003Z,95590.13
2022-08-16T18:31:34.172Z,95611.25
2022-08-16T18:34:02.820Z,95618.31
2022-08-16T18:36:33.427Z,95600.88
2022-08-16T18:39:02.036Z,95631.13
2022-08-16T18:41:30.539Z,95639.38
2022-08-16T18:44:25.686Z,95640.56
2022-08-16T18:46:50.975Z,95644.25
2022-08-16T18:49:20.192Z,95644.06
2022-08-16T18:51:50.967Z,95642.28
2022-08-16T18:54:19.360Z,95655.97
2022-08-16T18:56:54.224Z,95649.91
2022-08-16T18:59:26.900Z,95654.31
2022-08-16T19:01:55.484Z,95665.94
2022-08-16T19:04:49.027Z,95666.78
2022-08-16T19:07:18.952Z,95646.69
2022-08-16T19:09:47.237Z,95671.38
2022-08-16T19:12:15.909Z,95680.03
2022-08-16T19:14:45.507Z,95688.50
2022-08-16T19:17:16.122Z,95674.22
2022-08-16T19:19:46.768Z,95650.13
2022-08-16T19:22:14.979Z,95689.75
2022-08-16T19:24:44.536Z,95662.00
2022-08-16T19:27:13.953Z,95695.31
2022-08-16T19:29:42.405Z,95683.28
2022-08-16T19:32:18.261Z,95702.75
2022-08-16T19:34:46.646Z,95696.94
2022-08-16T19:37:14.824Z,95688.13
2022-08-16T19:39:44.532Z,95701.75
2022-08-16T19:42:16.843Z,95692.75
2022-08-16T19:44:46.807Z,95696.56
2022-08-16T19:47:15.177Z,95691.75
2022-08-16T19:49:43.679Z,95693.72
2022-08-16T19:52:14.704Z,95686.50
2022-08-16T19:54:44.601Z,95690.44
2022-08-16T19:57:13.528Z,95693.88
2022-08-16T19:59:45.063Z,95696.84
2022-08-16T20:02:32.634Z,95693.66
2022-08-16T20:05:06.041Z,95693.81
2022-08-16T20:07:34.303Z,95690.78
2022-08-16T20:10:04.916Z,95700.44
2022-08-16T20:12:36.187Z,95671.47
2022-08-16T20:15:04.681Z,95690.78
2022-08-16T20:17:32.939Z,95697.19
2022-08-16T20:20:01.244Z,95709.22
2022-08-16T20:22:52.344Z,95691.78
2022-08-16T20:25:29.846Z,95695.78
2022-08-16T20:27:59.730Z,95688.34
2022-08-16T20:30:28.285Z,95690.97
2022-08-16T20:32:56.492Z,95690.53
2022-08-16T20:35:27.442Z,95702.22
2022-08-16T20:37:55.988Z,95698.16
2022-08-16T20:40:35.094Z,95696.75
2022-08-16T20:43:07.239Z,95670.19
2022-08-16T20:45:35.836Z,95705.78
2022-08-16T20:48:04.991Z,95707.97
2022-08-16T20:50:33.584Z,95705.16
2022-08-16T20:53:01.905Z,95693.09
2022-08-16T20:55:31.612Z,95696.91
2022-08-16T20:58:00.261Z,95703.72
2022-08-16T21:00:29.093Z,95702.50
2022-08-16T21:02:58.533Z,95702.88
2022-08-16T21:05:31.332Z,95699.81
2022-08-16T21:08:00.854Z,95705.03
2022-08-16T21:10:29.104Z,95720.00
2022-08-16T21:13:02.684Z,95718.13
2022-08-16T21:15:32.823Z,95709.22
2022-08-16T21:18:01.646Z,95712.91
2022-08-16T21:20:29.821Z,95709.44
2022-08-16T21:22:59.726Z,95710.19
2022-08-16T21:25:28.110Z,95716.19
2022-08-16T21:28:41.348Z,95720.59
2022-08-16T21:30:47.967Z,95710.53
2022-08-16T21:33:17.642Z,95719.16
2022-08-16T21:35:47.382Z,95714.72
2022-08-16T21:38:29.053Z,95704.88
2022-08-16T21:40:59.060Z,95712.53
2022-08-16T21:43:32.021Z,95717.41
2022-08-16T21:46:00.866Z,95709.31
2022-08-16T21:48:35.195Z,95712.00
2022-08-16T21:51:05.375Z,95711.94
2022-08-16T21:53:33.671Z,95705.31
2022-08-16T21:56:01.956Z,95706.38
2022-08-16T21:58:31.939Z,95712.34
2022-08-16T22:01:00.613Z,95722.59
2022-08-16T22:03:30.082Z,95645.94
2022-08-16T22:06:11.075Z,95719.56
2022-08-16T22:08:48.800Z,95720.25
2022-08-16T22:11:22.288Z,95715.34
2022-08-16T22:13:58.823Z,95726.25
2022-08-16T22:16:30.238Z,95724.22
2022-08-16T22:18:58.515Z,95691.72
2022-08-16T22:21:26.750Z,95690.75
2022-08-16T22:23:57.953Z,95691.25
2022-08-16T22:26:29.150Z,95717.38
2022-08-16T22:29:01.228Z,95720.16
2022-08-16T22:31:29.552Z,95714.53
2022-08-16T22:33:58.025Z,95719.50
2022-08-16T22:36:27.930Z,95724.06
2022-08-16T22:38:58.668Z,95693.13
2022-08-16T22:41:31.215Z,95718.50
2022-08-16T22:44:01.223Z,95708.41
2022-08-16T22:46:30.377Z,95713.59
2022-08-16T22:48:59.017Z,95717.63
2022-08-16T22:51:28.787Z,95720.06
2022-08-16T22:53:57.511Z,95717.06
2022-08-16T22:56:26.272Z,95716.81
2022-08-16T22:58:54.527Z,95726.34
2022-08-16T23:01:25.938Z,95726.72
2022-08-16T23:03:55.356Z,95723.44
2022-08-16T23:06:24.176Z,95712.72
2022-08-16T23:08:52.502Z,95716.28
2022-08-16T23:11:23.052Z,95711.72
2022-08-16T23:13:53.732Z,95683.69
2022-08-16T23:16:32.507Z,95711.53
2022-08-16T23:19:02.478Z,95716.53
2022-08-16T23:21:30.642Z,95703.28
2022-08-16T23:23:58.829Z,95702.84
2022-08-16T23:26:44.974Z,95674.81
2022-08-16T23:29:23.475Z,95700.63
2022-08-16T23:31:58.273Z,95697.50
2022-08-16T23:34:27.932Z,95698.41
2022-08-16T23:36:56.332Z,95698.91
2022-08-16T23:39:24.950Z,95692.03
2022-08-16T23:41:53.243Z,95658.63
2022-08-16T23:44:55.060Z,95698.19
2022-08-16T23:47:11.011Z,95687.97
2022-08-16T23:49:58.105Z,95699.91
2022-08-16T23:52:54.738Z,95699.31
2022-08-16T23:55:16.268Z,95686.31
2022-08-16T23:57:45.170Z,95684.94
